Time;durP1;ratioP1;P1;durP2;ratioP2;P2;SDS_P1;SDS_P2;PMS_P1;PMS_P2;Temp;Humidity;BMP_temperature;BMP_pressure;BME280_temperature;BME280_humidity;BME280_pressure;Samples;Min_cycle;Max_cycle;Signal;HPM_P1;HPM_P2
2023/08/15 00:00:48;;;;;;;11.07;5.28;;;;;;;;;;5027604;28;20045;-62
2023/08/15 00:03:14;;;;;;;11.63;4.22;;;;;;;;;;5024159;28;20060;-62
2023/08/15 00:05:41;;;;;;;12.30;4.47;;;;;;;;;;5027567;28;20068;-63
2023/08/15 00:08:07;;;;;;;8.45;4.13;;;;;;;;;;5019633;28;20042;-62
2023/08/15 00:10:34;;;;;;;16.85;5.70;;;;;;;;;;5027459;28;20041;-62
2023/08/15 00:13:02;;;;;;;9.90;4.88;;;;;;;;;;5027705;28;20053;-62
2023/08/15 00:15:30;;;;;;;19.08;4.93;;;;;;;;;;5028198;28;20057;-63
2023/08/15 00:17:56;;;;;;;8.45;4.28;;;;;;;;;;5027458;28;20053;-63
2023/08/15 00:20:23;;;;;;;10.52;4.93;;;;;;;;;;5028128;28;20476;-63
2023/08/15 00:22:49;;;;;;;12.73;4.80;;;;;;;;;;5026094;28;20140;-63
2023/08/15 00:25:16;;;;;;;7.32;4.13;;;;;;;;;;5027670;28;20073;-64
2023/08/15 00:27:42;;;;;;;10.98;4.30;;;;;;;;;;5027427;28;20045;-63
2023/08/15 00:30:09;;;;;;;9.20;4.03;;;;;;;;;;5028205;28;20500;-63
2023/08/15 00:32:36;;;;;;;18.80;7.28;;;;;;;;;;5024957;28;20049;-64
2023/08/15 00:35:03;;;;;;;9.20;4.90;;;;;;;;;;5011882;28;20514;-63
2023/08/15 00:37:31;;;;;;;8.60;4.63;;;;;;;;;;5017631;28;20132;-63
2023/08/15 00:39:58;;;;;;;16.60;5.10;;;;;;;;;;5021637;28;20057;-68
2023/08/15 00:42:25;;;;;;;5.80;4.10;;;;;;;;;;5026487;28;20056;-64
2023/08/15 00:44:52;;;;;;;7.40;4.32;;;;;;;;;;5015816;28;20041;-64
2023/08/15 00:47:19;;;;;;;8.98;4.13;;;;;;;;;;5018851;28;20081;-63
2023/08/15 00:49:47;;;;;;;6.32;3.92;;;;;;;;;;5019734;28;20457;-63
2023/08/15 00:52:15;;;;;;;5.38;3.50;;;;;;;;;;5027537;28;20118;-64
2023/08/15 00:54:43;;;;;;;10.48;3.75;;;;;;;;;;5020555;28;20045;-63
2023/08/15 00:57:10;;;;;;;11.70;3.53;;;;;;;;;;5022164;28;20050;-64
2023/08/15 00:59:37;;;;;;;8.32;3.67;;;;;;;;;;5026118;28;20073;-63
2023/08/15 01:02:04;;;;;;;9.73;3.40;;;;;;;;;;5025805;28;20045;-64
2023/08/15 01:04:31;;;;;;;5.05;3.13;;;;;;;;;;5027372;28;20041;-63
2023/08/15 01:06:57;;;;;;;6.50;3.47;;;;;;;;;;5024358;28;20472;-63
2023/08/15 01:09:24;;;;;;;6.05;3.45;;;;;;;;;;5027839;28;20057;-63
2023/08/15 01:11:55;;;;;;;4.90;2.80;;;;;;;;;;5026769;28;20620;-63
2023/08/15 01:14:25;;;;;;;8.88;3.33;;;;;;;;;;5027475;28;20453;-63
2023/08/15 01:16:52;;;;;;;7.82;3.30;;;;;;;;;;5026874;28;20064;-63
2023/08/15 01:19:21;;;;;;;7.18;3.35;;;;;;;;;;5027318;28;20053;-63
2023/08/15 01:21:48;;;;;;;5.43;3.28;;;;;;;;;;5026509;28;20084;-64
2023/08/15 01:24:15;;;;;;;6.38;3.58;;;;;;;;;;5011538;28;20135;-63
2023/08/15 01:26:42;;;;;;;7.63;3.40;;;;;;;;;;5022905;28;20049;-63
2023/08/15 01:29:08;;;;;;;6.18;3.55;;;;;;;;;;5014160;28;20111;-63
2023/08/15 01:31:35;;;;;;;4.55;3.08;;;;;;;;;;5026134;28;20672;-63
2023/08/15 01:34:09;;;;;;;4.50;2.97;;;;;;;;;;5014252;28;20141;-63
2023/08/15 01:36:41;;;;;;;7.70;3.15;;;;;;;;;;5024206;28;20045;-63
2023/08/15 01:39:09;;;;;;;6.47;3.67;;;;;;;;;;5013582;28;20449;-64
2023/08/15 01:41:37;;;;;;;8.60;3.42;;;;;;;;;;5027275;28;20049;-63
2023/08/15 01:44:04;;;;;;;9.25;4.07;;;;;;;;;;5021770;28;20048;-63
2023/08/15 01:46:30;;;;;;;6.82;3.63;;;;;;;;;;5025275;28;20088;-63
2023/08/15 01:48:59;;;;;;;11.82;3.33;;;;;;;;;;5022614;28;20486;-63
2023/08/15 01:51:26;;;;;;;10.23;4.18;;;;;;;;;;5030558;28;20041;-63
2023/08/15 01:53:52;;;;;;;9.68;3.53;;;;;;;;;;5030282;28;20050;-62
2023/08/15 01:56:19;;;;;;;5.60;3.83;;;;;;;;;;5029486;28;20045;-63
2023/08/15 01:58:46;;;;;;;7.88;3.60;;;;;;;;;;5015179;28;20578;-64
2023/08/15 02:01:14;;;;;;;5.47;3.78;;;;;;;;;;5029963;28;20096;-62
2023/08/15 02:03:40;;;;;;;7.22;4.25;;;;;;;;;;5030053;28;20057;-63
2023/08/15 02:06:08;;;;;;;7.20;3.80;;;;;;;;;;5029143;28;20120;-62
2023/08/15 02:08:34;;;;;;;6.57;3.90;;;;;;;;;;5030990;28;20046;-64
2023/08/15 02:11:00;;;;;;;12.52;4.70;;;;;;;;;;5029761;28;20485;-62
2023/08/15 02:13:30;;;;;;;9.63;4.47;;;;;;;;;;5030429;28;20049;-63
2023/08/15 02:15:57;;;;;;;8.77;5.18;;;;;;;;;;5025881;28;20410;-63
2023/08/15 02:18:28;;;;;;;8.05;4.18;;;;;;;;;;5013931;28;20056;-62
2023/08/15 02:20:54;;;;;;;;;;;;;;;;;;5030032;28;20537;-62
2023/08/15 02:23:21;;;;;;;10.80;4.35;;;;;;;;;;5030162;28;19988;-63
2023/08/15 02:25:47;;;;;;;9.30;4.70;;;;;;;;;;5028960;28;20045;-62
2023/08/15 02:28:14;;;;;;;7.70;4.15;;;;;;;;;;5030973;28;20052;-63
2023/08/15 02:30:40;;;;;;;8.45;5.03;;;;;;;;;;5030326;28;20270;-62
2023/08/15 02:33:07;;;;;;;10.32;4.35;;;;;;;;;;5031329;28;20139;-62
2023/08/15 02:35:37;;;;;;;10.02;4.65;;;;;;;;;;5031440;28;20139;-63
2023/08/15 02:38:04;;;;;;;7.35;4.15;;;;;;;;;;5030744;28;20115;-63
2023/08/15 02:40:30;;;;;;;8.95;4.32;;;;;;;;;;5030769;28;20053;-63
2023/08/15 02:42:58;;;;;;;7.43;4.88;;;;;;;;;;5030357;28;20049;-62
2023/08/15 02:45:24;;;;;;;7.45;4.22;;;;;;;;;;5030859;28;20137;-63
2023/08/15 02:47:51;;;;;;;9.65;5.07;;;;;;;;;;5030027;28;20061;-62
2023/08/15 02:50:18;;;;;;;7.22;5.07;;;;;;;;;;5030735;28;20104;-63
2023/08/15 02:52:45;;;;;;;11.95;6.85;;;;;;;;;;5030571;28;20081;-62
2023/08/15 02:55:11;;;;;;;10.70;5.97;;;;;;;;;;5030869;28;20085;-62
2023/08/15 02:57:37;;;;;;;12.13;5.90;;;;;;;;;;5024251;28;20053;-62
2023/08/15 03:00:04;;;;;;;9.75;5.85;;;;;;;;;;5009950;28;20125;-63
2023/08/15 03:02:31;;;;;;;11.50;5.25;;;;;;;;;;5010475;28;20061;-63
2023/08/15 03:04:57;;;;;;;8.15;5.38;;;;;;;;;;5011339;28;20046;-63
2023/08/15 03:07:24;;;;;;;12.75;5.30;;;;;;;;;;5029907;28;20053;-63
2023/08/15 03:09:50;;;;;;;11.07;5.82;;;;;;;;;;5029719;28;20045;-63
2023/08/15 03:12:17;;;;;;;11.40;6.40;;;;;;;;;;5030560;28;20125;-63
2023/08/15 03:14:43;;;;;;;8.38;5.43;;;;;;;;;;5029880;28;20052;-63
2023/08/15 03:17:09;;;;;;;10.52;5.35;;;;;;;;;;5030394;28;20058;-62
2023/08/15 03:19:37;;;;;;;11.80;5.82;;;;;;;;;;5029545;28;20086;-63
2023/08/15 03:22:06;;;;;;;13.20;7.20;;;;;;;;;;5030039;28;20037;-63
2023/08/15 03:24:32;;;;;;;9.45;5.95;;;;;;;;;;5029444;28;20045;-63
2023/08/15 03:26:59;;;;;;;10.15;5.72;;;;;;;;;;5029483;28;20132;-63
2023/08/15 03:29:29;;;;;;;11.50;5.47;;;;;;;;;;5029511;28;20417;-62
2023/08/15 03:31:57;;;;;;;8.82;5.88;;;;;;;;;;5029437;28;20075;-63
2023/08/15 03:34:24;;;;;;;13.25;6.82;;;;;;;;;;5029877;28;20049;-62
2023/08/15 03:36:50;;;;;;;9.90;6.72;;;;;;;;;;5029880;28;20192;-62
2023/08/15 03:39:17;;;;;;;14.00;6.80;;;;;;;;;;5030252;28;20050;-62
2023/08/15 03:41:44;;;;;;;11.25;7.10;;;;;;;;;;5029779;28;20132;-62
2023/08/15 03:44:11;;;;;;;12.38;7.78;;;;;;;;;;5030059;28;20045;-63
2023/08/15 03:46:39;;;;;;;16.13;8.20;;;;;;;;;;5029392;28;20080;-64
2023/08/15 03:49:05;;;;;;;18.70;8.23;;;;;;;;;;5029351;28;20053;-63
2023/08/15 03:51:32;;;;;;;17.10;10.15;;;;;;;;;;5029251;28;20080;-62
2023/08/15 03:54:04;;;;;;;18.63;10.15;;;;;;;;;;5029318;28;20045;-62
2023/08/15 03:56:30;;;;;;;25.75;11.27;;;;;;;;;;5029054;28;20486;-63
2023/08/15 03:58:57;;;;;;;25.90;11.93;;;;;;;;;;5012417;28;20076;-63
2023/08/15 04:01:23;;;;;;;21.75;11.25;;;;;;;;;;5009812;28;20104;-63
2023/08/15 04:03:50;;;;;;;28.52;13.30;;;;;;;;;;5009422;28;20045;-63
2023/08/15 04:06:17;;;;;;;31.05;13.77;;;;;;;;;;5021871;28;20053;-63
2023/08/15 04:08:45;;;;;;;34.08;13.73;;;;;;;;;;5028792;28;20437;-62
2023/08/15 04:11:11;;;;;;;32.63;15.10;;;;;;;;;;5026940;28;20434;-63
2023/08/15 04:13:38;;;;;;;42.78;15.18;;;;;;;;;;5028948;28;20119;-62
2023/08/15 04:16:04;;;;;;;28.15;13.40;;;;;;;;;;5029111;28;20143;-63
2023/08/15 04:18:33;;;;;;;26.58;12.57;;;;;;;;;;5028377;28;20053;-62
2023/08/15 04:21:00;;;;;;;33.17;13.57;;;;;;;;;;5028956;28;20077;-63
2023/08/15 04:23:26;;;;;;;26.75;13.45;;;;;;;;;;5028685;28;20548;-62
2023/08/15 04:25:53;;;;;;;32.83;14.07;;;;;;;;;;5029085;28;20145;-63
2023/08/15 04:28:19;;;;;;;29.00;14.98;;;;;;;;;;5028901;28;20053;-63
2023/08/15 04:30:46;;;;;;;29.10;14.15;;;;;;;;;;5028457;28;20096;-63
2023/08/15 04:33:12;;;;;;;35.78;14.48;;;;;;;;;;5028578;28;20053;-62
2023/08/15 04:35:39;;;;;;;31.38;14.90;;;;;;;;;;5028912;28;20045;-62
2023/08/15 04:38:06;;;;;;;29.25;13.20;;;;;;;;;;5028616;28;20119;-63
2023/08/15 04:40:33;;;;;;;23.33;12.38;;;;;;;;;;5028774;28;20081;-63
2023/08/15 04:43:00;;;;;;;24.98;13.10;;;;;;;;;;5029019;28;20045;-63
2023/08/15 04:45:26;;;;;;;35.33;15.13;;;;;;;;;;5028966;28;20089;-65
2023/08/15 04:47:53;;;;;;;28.60;13.40;;;;;;;;;;5028892;28;20097;-62
2023/08/15 04:50:19;;;;;;;26.20;12.13;;;;;;;;;;5028772;28;20053;-62
2023/08/15 04:52:46;;;;;;;26.05;12.18;;;;;;;;;;5028612;28;20128;-62
2023/08/15 04:55:15;;;;;;;25.27;11.45;;;;;;;;;;5028025;28;20092;-63
2023/08/15 04:57:42;;;;;;;18.30;10.75;;;;;;;;;;5021873;28;20057;-62
2023/08/15 05:00:09;;;;;;;18.88;10.20;;;;;;;;;;5008342;28;20050;-62
2023/08/15 05:02:35;;;;;;;24.88;12.95;;;;;;;;;;5008445;28;20046;-62
2023/08/15 05:05:03;;;;;;;22.83;11.18;;;;;;;;;;5010490;28;20135;-64
2023/08/15 05:07:30;;;;;;;17.33;9.32;;;;;;;;;;5028543;28;20496;-63
2023/08/15 05:09:56;;;;;;;24.20;11.18;;;;;;;;;;5028818;28;20049;-63
2023/08/15 05:12:23;;;;;;;19.67;10.70;;;;;;;;;;5028194;28;20129;-63
2023/08/15 05:14:49;;;;;;;16.92;10.23;;;;;;;;;;5028424;28;20056;-63
2023/08/15 05:17:16;;;;;;;20.40;10.55;;;;;;;;;;5028156;28;20657;-63
2023/08/15 05:19:42;;;;;;;16.38;9.90;;;;;;;;;;5028965;28;20560;-62
2023/08/15 05:22:09;;;;;;;17.23;10.88;;;;;;;;;;5028923;28;20505;-63
2023/08/15 05:24:35;;;;;;;18.27;10.88;;;;;;;;;;5032166;28;20049;-62
2023/08/15 05:27:02;;;;;;;17.88;11.82;;;;;;;;;;5031844;28;20488;-62
2023/08/15 05:29:28;;;;;;;15.90;10.50;;;;;;;;;;5032496;28;20059;-62
2023/08/15 05:31:55;;;;;;;15.80;9.75;;;;;;;;;;5032037;28;20132;-63
2023/08/15 05:34:21;;;;;;;13.43;8.98;;;;;;;;;;5032168;28;20077;-63
2023/08/15 05:36:48;;;;;;;15.65;9.50;;;;;;;;;;5031843;28;20041;-62
2023/08/15 05:39:14;;;;;;;14.43;8.73;;;;;;;;;;5031899;28;20140;-62
2023/08/15 05:41:41;;;;;;;15.27;10.05;;;;;;;;;;5031818;28;20496;-62
2023/08/15 05:44:07;;;;;;;12.70;8.45;;;;;;;;;;5031459;28;20140;-63
2023/08/15 05:46:33;;;;;;;16.13;8.77;;;;;;;;;;5031448;28;20136;-63
2023/08/15 05:49:00;;;;;;;17.02;8.50;;;;;;;;;;5031200;28;20053;-62
2023/08/15 05:51:26;;;;;;;12.65;7.80;;;;;;;;;;5031691;28;20104;-63
2023/08/15 05:53:53;;;;;;;14.60;7.60;;;;;;;;;;5031750;28;20531;-63
2023/08/15 05:56:19;;;;;;;12.35;7.63;;;;;;;;;;5030689;28;20052;-63
2023/08/15 05:58:45;;;;;;;13.35;7.22;;;;;;;;;;5016225;28;20112;-63
2023/08/15 06:01:12;;;;;;;10.90;7.72;;;;;;;;;;5011578;28;20081;-62
2023/08/15 06:03:39;;;;;;;9.82;7.20;;;;;;;;;;5011473;28;20060;-63
2023/08/15 06:06:18;;;;;;;11.38;7.32;;;;;;;;;;5024182;28;20585;-63
2023/08/15 06:08:44;;;;;;;10.48;7.22;;;;;;;;;;5030802;28;20041;-65
2023/08/15 06:11:10;;;;;;;12.27;6.88;;;;;;;;;;5030899;28;20671;-64
2023/08/15 06:13:37;;;;;;;11.77;7.60;;;;;;;;;;5031268;28;20141;-62
2023/08/15 06:16:03;;;;;;;11.13;6.90;;;;;;;;;;5029957;28;20124;-65
2023/08/15 06:18:30;;;;;;;8.80;6.97;;;;;;;;;;5031429;28;20104;-63
2023/08/15 06:20:56;;;;;;;15.43;6.95;;;;;;;;;;5031143;28;20049;-62
2023/08/15 06:23:23;;;;;;;8.82;7.05;;;;;;;;;;5030681;28;20053;-63
2023/08/15 06:25:49;;;;;;;12.10;7.00;;;;;;;;;;5030610;28;20406;-63
2023/08/15 06:28:17;;;;;;;10.15;7.13;;;;;;;;;;5030565;28;20132;-63
2023/08/15 06:30:45;;;;;;;7.80;6.75;;;;;;;;;;5030921;28;20049;-63
2023/08/15 06:33:12;;;;;;;9.82;6.47;;;;;;;;;;5030513;28;20060;-63
2023/08/15 06:35:38;;;;;;;9.40;6.28;;;;;;;;;;5030381;28;20330;-63
2023/08/15 06:38:05;;;;;;;9.93;6.18;;;;;;;;;;5030835;28;20061;-63
2023/08/15 06:40:31;;;;;;;8.35;5.40;;;;;;;;;;5031497;28;20104;-63
2023/08/15 06:42:58;;;;;;;8.70;5.82;;;;;;;;;;5031302;28;20053;-63
2023/08/15 06:45:24;;;;;;;8.18;5.35;;;;;;;;;;5030619;28;20388;-64
2023/08/15 06:47:51;;;;;;;10.50;6.20;;;;;;;;;;5029932;28;20151;-62
2023/08/15 06:50:17;;;;;;;7.07;4.88;;;;;;;;;;5030571;28;20052;-62
2023/08/15 06:52:44;;;;;;;10.25;6.55;;;;;;;;;;5030179;28;20124;-63
2023/08/15 06:55:11;;;;;;;6.50;5.47;;;;;;;;;;5030495;28;20142;-63
2023/08/15 06:57:37;;;;;;;7.82;5.75;;;;;;;;;;5023883;28;20503;-65
2023/08/15 07:00:06;;;;;;;7.43;5.05;;;;;;;;;;5010583;28;20077;-64
2023/08/15 07:02:33;;;;;;;9.18;4.97;;;;;;;;;;5010387;28;20068;-66
2023/08/15 07:04:59;;;;;;;6.65;4.85;;;;;;;;;;5021981;28;20124;-69
2023/08/15 07:07:26;;;;;;;7.32;5.10;;;;;;;;;;5021524;28;20128;-68
2023/08/15 07:09:52;;;;;;;12.32;5.10;;;;;;;;;;5021841;28;20060;-68
2023/08/15 07:12:19;;;;;;;9.10;4.63;;;;;;;;;;5028550;28;20045;-67
2023/08/15 07:14:46;;;;;;;7.05;4.75;;;;;;;;;;5028327;28;20041;-64
2023/08/15 07:17:13;;;;;;;7.00;4.57;;;;;;;;;;5021964;28;20060;-66
2023/08/15 07:19:42;;;;;;;7.63;4.63;;;;;;;;;;5027315;28;20048;-66
2023/08/15 07:22:08;;;;;;;12.25;4.95;;;;;;;;;;5028809;28;20058;-64
2023/08/15 07:24:35;;;;;;;5.45;4.10;;;;;;;;;;5017844;28;20084;-65
2023/08/15 07:27:02;;;;;;;7.80;4.40;;;;;;;;;;5028709;28;20045;-65
2023/08/15 07:29:29;;;;;;;6.57;4.63;;;;;;;;;;5027723;28;20045;-64
2023/08/15 07:32:01;;;;;;;5.40;4.20;;;;;;;;;;5028223;28;20125;-64
2023/08/15 07:34:27;;;;;;;8.68;4.38;;;;;;;;;;5026489;28;20509;-65
2023/08/15 07:36:54;;;;;;;7.93;4.20;;;;;;;;;;5027400;28;20516;-65
2023/08/15 07:39:20;;;;;;;3.85;3.45;;;;;;;;;;5023800;28;20121;-65
2023/08/15 07:41:46;;;;;;;6.07;4.28;;;;;;;;;;5028271;28;20041;-64
2023/08/15 07:44:13;;;;;;;9.40;4.78;;;;;;;;;;5031431;28;20041;-65
2023/08/15 07:46:39;;;;;;;8.02;4.38;;;;;;;;;;5031517;28;20049;-64
2023/08/15 07:49:06;;;;;;;7.35;4.22;;;;;;;;;;5027473;28;20061;-64
2023/08/15 07:51:32;;;;;;;5.68;4.80;;;;;;;;;;5019458;28;20450;-67
2023/08/15 07:53:59;;;;;;;8.20;4.20;;;;;;;;;;5028458;28;20060;-65
2023/08/15 07:56:26;;;;;;;4.63;3.67;;;;;;;;;;5027571;28;20077;-65
2023/08/15 07:58:52;;;;;;;7.43;3.92;;;;;;;;;;5026159;28;20133;-65
2023/08/15 08:01:19;;;;;;;10.57;4.68;;;;;;;;;;5024880;28;20092;-67
2023/08/15 08:03:45;;;;;;;9.15;4.38;;;;;;;;;;5019196;28;20046;-64
2023/08/15 08:06:11;;;;;;;6.80;3.75;;;;;;;;;;5018368;28;20087;-65
2023/08/15 08:08:58;;;;;;;6.13;4.35;;;;;;;;;;5027858;28;20056;-64
2023/08/15 08:11:25;;;;;;;15.10;6.00;;;;;;;;;;5027020;28;20060;-64
2023/08/15 08:13:51;;;;;;;7.40;4.25;;;;;;;;;;5027809;28;20125;-65
2023/08/15 08:16:18;;;;;;;8.52;3.95;;;;;;;;;;5026571;28;20050;-65
2023/08/15 08:18:44;;;;;;;5.32;3.67;;;;;;;;;;5027250;28;20085;-65
2023/08/15 08:21:11;;;;;;;5.80;3.67;;;;;;;;;;5026829;28;20073;-65
2023/08/15 08:23:37;;;;;;;5.45;3.55;;;;;;;;;;5027173;28;20046;-64
2023/08/15 08:26:04;;;;;;;6.13;4.15;;;;;;;;;;5026713;28;20049;-67
2023/08/15 08:28:31;;;;;;;4.38;3.92;;;;;;;;;;5026865;28;20100;-65
2023/08/15 08:30:58;;;;;;;5.05;4.35;;;;;;;;;;5026948;28;20144;-65
2023/08/15 08:33:25;;;;;;;9.07;4.45;;;;;;;;;;5027596;28;20577;-65
2023/08/15 08:35:52;;;;;;;7.72;3.75;;;;;;;;;;5026348;28;20042;-65
2023/08/15 08:38:18;;;;;;;5.38;3.28;;;;;;;;;;5026895;28;20127;-66
2023/08/15 08:40:47;;;;;;;4.05;3.30;;;;;;;;;;5026626;28;20145;-65
2023/08/15 08:43:15;;;;;;;7.63;3.83;;;;;;;;;;5026455;28;20132;-64
2023/08/15 08:45:46;;;;;;;6.63;3.53;;;;;;;;;;5026254;28;20045;-64
2023/08/15 08:48:15;;;;;;;5.55;4.00;;;;;;;;;;5026012;28;20477;-64
2023/08/15 08:50:41;;;;;;;9.38;4.43;;;;;;;;;;5026363;28;20132;-65
2023/08/15 08:53:07;;;;;;;10.57;4.65;;;;;;;;;;5025936;28;20116;-64
2023/08/15 08:55:34;;;;;;;4.90;4.35;;;;;;;;;;5026616;28;20448;-65
2023/08/15 08:58:02;;;;;;;7.88;4.53;;;;;;;;;;5025847;28;20142;-66
2023/08/15 09:00:31;;;;;;;5.75;4.45;;;;;;;;;;5025563;28;20176;-65
2023/08/15 09:02:58;;;;;;;7.07;5.25;;;;;;;;;;5025889;28;20055;-65
2023/08/15 09:05:26;;;;;;;6.45;4.18;;;;;;;;;;5025861;28;20125;-65
2023/08/15 09:07:53;;;;;;;9.88;4.68;;;;;;;;;;5026080;28;20056;-68
2023/08/15 09:10:21;;;;;;;15.73;5.18;;;;;;;;;;5023687;28;20516;-64
2023/08/15 09:12:47;;;;;;;13.15;6.30;;;;;;;;;;5024766;28;20120;-65
2023/08/15 09:15:14;;;;;;;12.23;6.13;;;;;;;;;;5025042;28;20099;-64
2023/08/15 09:17:42;;;;;;;7.45;4.50;;;;;;;;;;5025104;28;20046;-63
2023/08/15 09:20:10;;;;;;;5.85;4.18;;;;;;;;;;5025227;28;20100;-65
2023/08/15 09:22:41;;;;;;;6.80;4.07;;;;;;;;;;5025556;28;20053;-64
2023/08/15 09:25:08;;;;;;;7.95;4.32;;;;;;;;;;5018546;28;20780;-64
2023/08/15 09:27:36;;;;;;;7.68;4.80;;;;;;;;;;5025333;28;20455;-66
2023/08/15 09:30:09;;;;;;;4.80;3.90;;;;;;;;;;5026057;28;20137;-65
2023/08/15 09:32:37;;;;;;;4.47;3.90;;;;;;;;;;5024887;28;20050;-65
2023/08/15 09:35:04;;;;;;;8.75;4.40;;;;;;;;;;5025170;28;20056;-66
2023/08/15 09:37:31;;;;;;;9.13;4.30;;;;;;;;;;5025621;28;20709;-64
2023/08/15 09:39:57;;;;;;;5.82;4.75;;;;;;;;;;5026130;28;20053;-66
2023/08/15 09:42:24;;;;;;;6.75;4.10;;;;;;;;;;5025603;28;20046;-64
2023/08/15 09:44:52;;;;;;;9.02;4.05;;;;;;;;;;5024286;28;20065;-66
2023/08/15 09:47:19;;;;;;;6.68;5.45;;;;;;;;;;5025321;28;20099;-66
2023/08/15 09:49:47;;;;;;;5.60;4.55;;;;;;;;;;5025309;28;20129;-65
2023/08/15 09:52:14;;;;;;;4.80;4.20;;;;;;;;;;5025762;28;20128;-67
2023/08/15 09:54:41;;;;;;;6.60;4.75;;;;;;;;;;5012371;28;20212;-65
2023/08/15 09:57:07;;;;;;;7.60;5.10;;;;;;;;;;5025694;28;20397;-66
2023/08/15 09:59:36;;;;;;;5.20;3.88;;;;;;;;;;5024344;28;20604;-66
2023/08/15 10:02:03;;;;;;;6.15;4.47;;;;;;;;;;5023626;28;20065;-65
2023/08/15 10:04:31;;;;;;;14.00;5.35;;;;;;;;;;5023520;28;20123;-65
2023/08/15 10:06:58;;;;;;;5.63;4.60;;;;;;;;;;5024376;28;20119;-66
2023/08/15 10:09:25;;;;;;;11.30;5.25;;;;;;;;;;5025910;28;20548;-66
2023/08/15 10:11:52;;;;;;;12.95;5.32;;;;;;;;;;5028539;28;20137;-64
2023/08/15 10:14:19;;;;;;;9.80;4.93;;;;;;;;;;5028254;28;20128;-64
2023/08/15 10:16:46;;;;;;;10.57;5.97;;;;;;;;;;5028347;28;20049;-65
2023/08/15 10:19:20;;;;;;;8.00;5.63;;;;;;;;;;5026393;28;20049;-65
2023/08/15 10:21:47;;;;;;;12.63;6.57;;;;;;;;;;5028026;28;20044;-65
2023/08/15 10:24:14;;;;;;;9.15;6.03;;;;;;;;;;5029409;28;20056;-67
2023/08/15 10:26:42;;;;;;;10.35;6.45;;;;;;;;;;5023124;28;20048;-64
2023/08/15 10:29:09;;;;;;;9.07;5.78;;;;;;;;;;5029121;28;20125;-64
2023/08/15 10:31:36;;;;;;;10.80;5.80;;;;;;;;;;5020533;28;20042;-64
2023/08/15 10:34:03;;;;;;;10.07;5.85;;;;;;;;;;5013606;28;20573;-65
2023/08/15 10:36:33;;;;;;;7.40;5.72;;;;;;;;;;5027552;28;20127;-64
2023/08/15 10:39:06;;;;;;;8.68;6.20;;;;;;;;;;5012802;28;20053;-65
2023/08/15 10:41:36;;;;;;;6.85;5.80;;;;;;;;;;5027429;28;20037;-63
2023/08/15 10:44:06;;;;;;;9.00;6.03;;;;;;;;;;5027473;28;20053;-65
2023/08/15 10:46:35;;;;;;;8.27;6.20;;;;;;;;;;5025834;28;20127;-66
2023/08/15 10:49:06;;;;;;;7.40;6.28;;;;;;;;;;5027358;28;20056;-64
2023/08/15 10:51:32;;;;;;;8.68;5.78;;;;;;;;;;5026693;28;20053;-65
2023/08/15 10:54:00;;;;;;;6.80;5.68;;;;;;;;;;5023493;28;20048;-65
2023/08/15 10:56:28;;;;;;;8.88;5.35;;;;;;;;;;5028674;28;20041;-65
2023/08/15 10:58:55;;;;;;;8.30;5.72;;;;;;;;;;5024630;28;20487;-68
2023/08/15 11:01:23;;;;;;;7.78;5.03;;;;;;;;;;5026833;28;20092;-67
2023/08/15 11:03:51;;;;;;;7.57;5.85;;;;;;;;;;5026555;28;20052;-64
2023/08/15 11:06:18;;;;;;;6.63;4.88;;;;;;;;;;5026436;28;20497;-65
2023/08/15 11:08:47;;;;;;;6.40;5.40;;;;;;;;;;5027495;28;20106;-64
2023/08/15 11:11:14;;;;;;;9.50;5.37;;;;;;;;;;5027182;28;20799;-64
2023/08/15 11:13:41;;;;;;;6.80;4.78;;;;;;;;;;5026901;28;20614;-63
2023/08/15 11:16:08;;;;;;;15.60;4.53;;;;;;;;;;5058249;28;20041;-63
2023/08/15 11:18:35;;;;;;;6.03;4.60;;;;;;;;;;5027936;28;20068;-65
2023/08/15 11:21:02;;;;;;;9.95;4.80;;;;;;;;;;5025958;28;20152;-65
2023/08/15 11:23:29;;;;;;;5.80;3.95;;;;;;;;;;5021041;28;20049;-64
2023/08/15 11:26:00;;;;;;;8.90;5.32;;;;;;;;;;5017364;28;20403;-65
2023/08/15 11:28:26;;;;;;;13.98;4.25;;;;;;;;;;5027905;28;20667;-63
2023/08/15 11:30:53;;;;;;;9.32;4.80;;;;;;;;;;5027341;28;20162;-66
2023/08/15 11:33:22;;;;;;;11.43;4.03;;;;;;;;;;5026219;28;20053;-64
2023/08/15 11:35:49;;;;;;;10.27;4.03;;;;;;;;;;5026676;28;20132;-65
2023/08/15 11:38:19;;;;;;;6.70;4.13;;;;;;;;;;5027779;28;20111;-64
2023/08/15 11:40:45;;;;;;;;;;;;;;;;;;5027225;28;20139;-66
2023/08/15 11:43:12;;;;;;;5.55;3.13;;;;;;;;;;5027416;28;20012;-66
2023/08/15 11:45:43;;;;;;;7.15;3.17;;;;;;;;;;5026614;28;20073;-64
2023/08/15 11:48:09;;;;;;;5.53;3.33;;;;;;;;;;5022093;28;20058;-64
2023/08/15 11:50:38;;;;;;;3.65;3.33;;;;;;;;;;5027542;28;20042;-64
2023/08/15 11:53:14;;;;;;;5.45;3.58;;;;;;;;;;5011619;28;20226;-64
2023/08/15 11:55:41;;;;;;;5.07;3.38;;;;;;;;;;5026931;28;20069;-66
2023/08/15 11:58:23;;;;;;;3.60;2.60;;;;;;;;;;5026488;28;20049;-66
2023/08/15 12:00:59;;;;;;;4.78;2.83;;;;;;;;;;5025914;28;20099;-71
2023/08/15 12:03:26;;;;;;;4.22;3.05;;;;;;;;;;5025138;28;20044;-70
2023/08/15 12:05:54;;;;;;;10.10;3.35;;;;;;;;;;5019233;28;20056;-66
2023/08/15 12:08:20;;;;;;;5.97;3.42;;;;;;;;;;5026505;28;20057;-68
2023/08/15 12:10:47;;;;;;;4.25;3.08;;;;;;;;;;5017279;28;20058;-65
2023/08/15 12:13:13;;;;;;;3.95;2.75;;;;;;;;;;5020250;28;20100;-65
2023/08/15 12:15:40;;;;;;;5.05;3.00;;;;;;;;;;5014458;28;20061;-70
2023/08/15 12:18:06;;;;;;;4.32;2.53;;;;;;;;;;5027255;28;20049;-65
2023/08/15 12:20:33;;;;;;;7.22;3.42;;;;;;;;;;5026262;28;20502;-65
2023/08/15 12:23:00;;;;;;;6.93;3.60;;;;;;;;;;5022671;28;20054;-65
2023/08/15 12:25:27;;;;;;;4.07;2.80;;;;;;;;;;5021152;28;20042;-70
2023/08/15 12:27:54;;;;;;;6.93;3.22;;;;;;;;;;5009375;28;20049;-68
2023/08/15 12:30:20;;;;;;;11.30;3.10;;;;;;;;;;5021277;28;20084;-67
2023/08/15 12:32:47;;;;;;;12.43;2.97;;;;;;;;;;5024878;28;20469;-68
2023/08/15 12:35:14;;;;;;;5.20;3.58;;;;;;;;;;5025191;28;20572;-68
2023/08/15 12:37:40;;;;;;;10.63;2.97;;;;;;;;;;5023882;28;20141;-67
2023/08/15 12:40:07;;;;;;;4.43;3.22;;;;;;;;;;5025118;28;20050;-67
2023/08/15 12:42:47;;;;;;;5.05;3.35;;;;;;;;;;5025650;28;20048;-70
2023/08/15 12:45:13;;;;;;;4.00;2.70;;;;;;;;;;5020728;28;20100;-67
2023/08/15 12:47:40;;;;;;;6.57;3.00;;;;;;;;;;5023524;28;20501;-68
2023/08/15 12:50:06;;;;;;;6.05;2.88;;;;;;;;;;5023064;28;20064;-68
2023/08/15 12:52:33;;;;;;;4.07;2.85;;;;;;;;;;5021423;28;20095;-70
2023/08/15 12:55:00;;;;;;;6.63;2.80;;;;;;;;;;5025781;28;20041;-68
2023/08/15 12:57:27;;;;;;;7.97;2.95;;;;;;;;;;5024093;28;20048;-67
2023/08/15 12:59:54;;;;;;;5.05;3.00;;;;;;;;;;5025565;28;20119;-68
2023/08/15 13:02:20;;;;;;;4.90;3.17;;;;;;;;;;5023050;28;20048;-67
2023/08/15 13:04:47;;;;;;;3.35;3.05;;;;;;;;;;5024605;28;20485;-73
2023/08/15 13:07:14;;;;;;;4.90;3.17;;;;;;;;;;5024283;28;20176;-71
2023/08/15 13:09:40;;;;;;;4.80;3.08;;;;;;;;;;5017253;28;20499;-70
2023/08/15 13:12:07;;;;;;;9.93;4.30;;;;;;;;;;5017286;28;20049;-62
2023/08/15 13:14:33;;;;;;;4.85;2.85;;;;;;;;;;5024952;28;20077;-64
2023/08/15 13:17:03;;;;;;;4.85;2.55;;;;;;;;;;5023857;28;20038;-64
2023/08/15 13:19:33;;;;;;;6.07;3.47;;;;;;;;;;5017928;28;20049;-64
2023/08/15 13:21:59;;;;;;;3.67;2.70;;;;;;;;;;5019963;28;20515;-66
2023/08/15 13:24:26;;;;;;;12.57;3.63;;;;;;;;;;5024592;28;20077;-64
2023/08/15 13:26:52;;;;;;;4.72;3.30;;;;;;;;;;5023439;28;20061;-66
2023/08/15 13:29:18;;;;;;;8.50;3.30;;;;;;;;;;5024898;28;20487;-64
2023/08/15 13:31:45;;;;;;;7.55;3.25;;;;;;;;;;5022363;28;20764;-65
2023/08/15 13:34:11;;;;;;;6.00;3.30;;;;;;;;;;5026341;28;20107;-69
2023/08/15 13:36:38;;;;;;;4.63;2.80;;;;;;;;;;5024182;28;20125;-67
2023/08/15 13:39:05;;;;;;;4.03;2.95;;;;;;;;;;5017464;28;20049;-66
2023/08/15 13:41:32;;;;;;;3.70;3.00;;;;;;;;;;5023114;28;20123;-65
2023/08/15 13:43:58;;;;;;;6.35;3.35;;;;;;;;;;5017046;28;20425;-66
2023/08/15 13:46:25;;;;;;;5.53;2.83;;;;;;;;;;5023440;28;20456;-64
2023/08/15 13:48:51;;;;;;;6.50;2.90;;;;;;;;;;5029716;28;20409;-63
2023/08/15 13:51:19;;;;;;;6.05;3.22;;;;;;;;;;5029419;28;20856;-63
2023/08/15 13:53:49;;;;;;;8.05;3.58;;;;;;;;;;5028327;28;20283;-65
2023/08/15 13:56:15;;;;;;;4.82;3.17;;;;;;;;;;5026144;28;20164;-64
2023/08/15 13:58:42;;;;;;;11.05;3.50;;;;;;;;;;5029392;28;20553;-65
2023/08/15 14:01:08;;;;;;;7.72;2.85;;;;;;;;;;5028840;28;20133;-63
2023/08/15 14:03:35;;;;;;;4.55;3.30;;;;;;;;;;5021626;28;20050;-62
2023/08/15 14:06:03;;;;;;;5.72;3.55;;;;;;;;;;5024326;28;20130;-66
2023/08/15 14:08:31;;;;;;;4.32;3.42;;;;;;;;;;5024708;28;20077;-67
2023/08/15 14:10:58;;;;;;;4.93;3.88;;;;;;;;;;5020542;28;20053;-65
2023/08/15 14:13:25;;;;;;;7.80;3.63;;;;;;;;;;5024705;28;20073;-65
2023/08/15 14:15:51;;;;;;;6.03;3.33;;;;;;;;;;5028066;28;20102;-63
2023/08/15 14:18:18;;;;;;;12.65;3.70;;;;;;;;;;5031290;28;20045;-62
2023/08/15 14:20:44;;;;;;;9.63;3.78;;;;;;;;;;5030279;28;20077;-64
2023/08/15 14:23:11;;;;;;;4.93;3.30;;;;;;;;;;5025501;28;20378;-63
2023/08/15 14:25:38;;;;;;;5.95;2.92;;;;;;;;;;5027514;28;20045;-62
2023/08/15 14:28:05;;;;;;;4.65;3.25;;;;;;;;;;5026215;28;20099;-62
2023/08/15 14:30:32;;;;;;;5.50;3.00;;;;;;;;;;5028335;28;20080;-64
2023/08/15 14:32:59;;;;;;;9.85;4.50;;;;;;;;;;5059828;28;20095;-62
2023/08/15 14:35:25;;;;;;;6.00;3.70;;;;;;;;;;5026335;28;20041;-64
2023/08/15 14:37:52;;;;;;;5.75;3.00;;;;;;;;;;5042001;28;20128;-62